sensor_id;sensor_type;location;lat;lon;timestamp;temperature;humidity
3790;DHT22;1910;49.042;9.028;2023-04-15T00:00:06;4.30;99.90
3790;DHT22;1910;49.042;9.028;2023-04-15T00:02:32;4.30;99.90
3790;DHT22;1910;49.042;9.028;2023-04-15T00:04:57;4.30;99.90
3790;DHT22;1910;49.042;9.028;2023-04-15T00:12:19;4.40;99.90
3790;DHT22;1910;49.042;9.028;2023-04-15T00:14:46;4.40;99.90
3790;DHT22;1910;49.042;9.028;2023-04-15T00:19:37;4.40;99.90
3790;DHT22;1910;49.042;9.028;2023-04-15T00:22:03;4.40;99.90
3790;DHT22;1910;49.042;9.028;2023-04-15T00:26:55;4.40;99.90
3790;DHT22;1910;49.042;9.028;2023-04-15T00:34:13;4.20;99.90
3790;DHT22;1910;49.042;9.028;2023-04-15T00:39:05;4.10;99.90
3790;DHT22;1910;49.042;9.028;2023-04-15T00:43:58;4.10;99.90
3790;DHT22;1910;49.042;9.028;2023-04-15T00:46:26;4.00;99.90
3790;DHT22;1910;49.042;9.028;2023-04-15T00:48:51;4.00;99.90
3790;DHT22;1910;49.042;9.028;2023-04-15T00:51:17;4.00;99.90
3790;DHT22;1910;49.042;9.028;2023-04-15T01:01:02;4.00;99.90
3790;DHT22;1910;49.042;9.028;2023-04-15T01:03:28;4.00;99.90
3790;DHT22;1910;49.042;9.028;2023-04-15T01:05:55;4.00;99.90
3790;DHT22;1910;49.042;9.028;2023-04-15T01:08:26;4.00;99.90
3790;DHT22;1910;49.042;9.028;2023-04-15T01:10:54;3.90;99.90
3790;DHT22;1910;49.042;9.028;2023-04-15T01:13:22;3.70;99.90
3790;DHT22;1910;49.042;9.028;2023-04-15T01:15:48;3.60;99.90
3790;DHT22;1910;49.042;9.028;2023-04-15T01:20:40;3.50;99.90
3790;DHT22;1910;49.042;9.028;2023-04-15T01:23:06;3.60;99.90
3790;DHT22;1910;49.042;9.028;2023-04-15T01:27:58;3.60;99.90
3790;DHT22;1910;49.042;9.028;2023-04-15T01:30:24;5.80;99.90
3790;DHT22;1910;49.042;9.028;2023-04-15T01:32:51;3.60;99.90
3790;DHT22;1910;49.042;9.028;2023-04-15T01:35:17;3.60;99.90
3790;DHT22;1910;49.042;9.028;2023-04-15T01:37:42;3.30;99.90
3790;DHT22;1910;49.042;9.028;2023-04-15T01:40:09;3.20;99.90
3790;DHT22;1910;49.042;9.028;2023-04-15T01:42:35;3.10;99.90
3790;DHT22;1910;49.042;9.028;2023-04-15T01:45:01;3.10;99.90
3790;DHT22;1910;49.042;9.028;2023-04-15T01:49:53;3.10;99.90
3790;DHT22;1910;49.042;9.028;2023-04-15T01:52:18;3.20;99.90
3790;DHT22;1910;49.042;9.028;2023-04-15T01:54:44;3.20;99.90
3790;DHT22;1910;49.042;9.028;2023-04-15T01:57:10;3.20;99.90
3790;DHT22;1910;49.042;9.028;2023-04-15T01:59:35;3.20;99.90
3790;DHT22;1910;49.042;9.028;2023-04-15T02:04:27;3.00;99.90
3790;DHT22;1910;49.042;9.028;2023-04-15T02:16:37;3.10;99.90
3790;DHT22;1910;49.042;9.028;2023-04-15T02:21:29;3.00;99.90
3790;DHT22;1910;49.042;9.028;2023-04-15T02:23:58;3.10;99.90
3790;DHT22;1910;49.042;9.028;2023-04-15T02:26:23;3.00;99.90
3790;DHT22;1910;49.042;9.028;2023-04-15T02:28:49;2.90;99.90
3790;DHT22;1910;49.042;9.028;2023-04-15T02:31:18;2.90;99.90
3790;DHT22;1910;49.042;9.028;2023-04-15T02:33:43;2.90;99.90
3790;DHT22;1910;49.042;9.028;2023-04-15T02:38:36;2.90;99.90
3790;DHT22;1910;49.042;9.028;2023-04-15T02:41:04;3.00;99.90
3790;DHT22;1910;49.042;9.028;2023-04-15T02:43:30;3.00;99.90
3790;DHT22;1910;49.042;9.028;2023-04-15T02:53:13;2.50;99.90
3790;DHT22;1910;49.042;9.028;2023-04-15T02:55:39;2.40;99.90
3790;DHT22;1910;49.042;9.028;2023-04-15T03:00:31;2.40;99.90
3790;DHT22;1910;49.042;9.028;2023-04-15T03:03:01;2.30;99.90
3790;DHT22;1910;49.042;9.028;2023-04-15T03:05:26;2.40;99.90
3790;DHT22;1910;49.042;9.028;2023-04-15T03:10:18;2.20;99.90
3790;DHT22;1910;49.042;9.028;2023-04-15T03:12:44;2.20;99.90
3790;DHT22;1910;49.042;9.028;2023-04-15T03:15:10;2.10;99.90
3790;DHT22;1910;49.042;9.028;2023-04-15T03:17:36;2.10;99.90
3790;DHT22;1910;49.042;9.028;2023-04-15T03:22:29;2.20;99.90
3790;DHT22;1910;49.042;9.028;2023-04-15T03:24:55;2.30;99.90
3790;DHT22;1910;49.042;9.028;2023-04-15T03:27:21;2.30;99.90
3790;DHT22;1910;49.042;9.028;2023-04-15T03:34:40;2.20;99.90
3790;DHT22;1910;49.042;9.028;2023-04-15T03:37:05;2.20;99.90
3790;DHT22;1910;49.042;9.028;2023-04-15T03:39:31;2.20;99.90
3790;DHT22;1910;49.042;9.028;2023-04-15T03:41:57;2.10;99.90
3790;DHT22;1910;49.042;9.028;2023-04-15T03:44:25;2.40;99.90
3790;DHT22;1910;49.042;9.028;2023-04-15T03:46:50;2.30;99.90
3790;DHT22;1910;49.042;9.028;2023-04-15T03:49:16;2.30;99.90
3790;DHT22;1910;49.042;9.028;2023-04-15T03:51:43;2.30;99.90
3790;DHT22;1910;49.042;9.028;2023-04-15T03:54:09;2.40;99.90
3790;DHT22;1910;49.042;9.028;2023-04-15T03:56:35;2.40;99.90
3790;DHT22;1910;49.042;9.028;2023-04-15T03:59:01;2.40;99.90
3790;DHT22;1910;49.042;9.028;2023-04-15T04:01:26;2.40;99.90
3790;DHT22;1910;49.042;9.028;2023-04-15T04:03:52;2.40;99.90
3790;DHT22;1910;49.042;9.028;2023-04-15T04:11:10;2.30;99.90
3790;DHT22;1910;49.042;9.028;2023-04-15T04:13:35;2.30;99.90
3790;DHT22;1910;49.042;9.028;2023-04-15T04:16:01;2.20;99.90
3790;DHT22;1910;49.042;9.028;2023-04-15T04:18:29;2.20;99.90
3790;DHT22;1910;49.042;9.028;2023-04-15T04:20:55;2.20;99.90
3790;DHT22;1910;49.042;9.028;2023-04-15T04:23:21;2.20;99.90
3790;DHT22;1910;49.042;9.028;2023-04-15T04:25:46;2.30;99.90
3790;DHT22;1910;49.042;9.028;2023-04-15T04:28:12;2.20;99.90
3790;DHT22;1910;49.042;9.028;2023-04-15T04:30:39;2.20;99.90
3790;DHT22;1910;49.042;9.028;2023-04-15T04:33:05;2.20;99.90
3790;DHT22;1910;49.042;9.028;2023-04-15T04:35:31;2.20;99.90
3790;DHT22;1910;49.042;9.028;2023-04-15T04:37:59;2.20;99.90
3790;DHT22;1910;49.042;9.028;2023-04-15T04:40:25;2.00;99.90
3790;DHT22;1910;49.042;9.028;2023-04-15T04:42:52;2.00;99.90
3790;DHT22;1910;49.042;9.028;2023-04-15T04:45:17;1.80;99.90
3790;DHT22;1910;49.042;9.028;2023-04-15T04:50:09;1.80;99.90
3790;DHT22;1910;49.042;9.028;2023-04-15T04:52:36;1.90;99.90
3790;DHT22;1910;49.042;9.028;2023-04-15T04:55:01;1.80;99.90
3790;DHT22;1910;49.042;9.028;2023-04-15T04:59:52;2.00;99.90
3790;DHT22;1910;49.042;9.028;2023-04-15T05:02:18;2.30;99.90
3790;DHT22;1910;49.042;9.028;2023-04-15T05:04:44;2.50;99.90
3790;DHT22;1910;49.042;9.028;2023-04-15T05:07:09;2.60;99.90
3790;DHT22;1910;49.042;9.028;2023-04-15T05:09:35;2.70;99.90
3790;DHT22;1910;49.042;9.028;2023-04-15T05:12:02;2.90;99.90
3790;DHT22;1910;49.042;9.028;2023-04-15T05:14:27;3.10;99.90
3790;DHT22;1910;49.042;9.028;2023-04-15T05:21:45;3.70;99.90
3790;DHT22;1910;49.042;9.028;2023-04-15T05:24:10;4.20;99.90
3790;DHT22;1910;49.042;9.028;2023-04-15T05:26:36;4.20;99.90
3790;DHT22;1910;49.042;9.028;2023-04-15T05:29:03;5.20;99.90
3790;DHT22;1910;49.042;9.028;2023-04-15T05:31:28;6.60;99.90
3790;DHT22;1910;49.042;9.028;2023-04-15T05:36:20;10.70;99.90
3790;DHT22;1910;49.042;9.028;2023-04-15T05:38:45;12.80;99.90
3790;DHT22;1910;49.042;9.028;2023-04-15T05:43:40;16.70;99.90
3790;DHT22;1910;49.042;9.028;2023-04-15T06:25:06;19.70;60.70
3790;DHT22;1910;49.042;9.028;2023-04-15T06:32:25;17.70;74.80
3790;DHT22;1910;49.042;9.028;2023-04-15T06:42:09;19.00;74.40
3790;DHT22;1910;49.042;9.028;2023-04-15T06:47:02;19.20;75.30
3790;DHT22;1910;49.042;9.028;2023-04-15T07:01:39;23.20;64.80
3790;DHT22;1910;49.042;9.028;2023-04-15T07:06:32;22.50;62.80
3790;DHT22;1910;49.042;9.028;2023-04-15T07:09:01;21.80;63.70
3790;DHT22;1910;49.042;9.028;2023-04-15T07:18:47;19.10;70.30
3790;DHT22;1910;49.042;9.028;2023-04-15T07:23:38;17.50;74.90
3790;DHT22;1910;49.042;9.028;2023-04-15T07:26:05;17.00;78.20
3790;DHT22;1910;49.042;9.028;2023-04-15T07:28:30;15.90;81.50
3790;DHT22;1910;49.042;9.028;2023-04-15T07:33:22;14.00;91.60
3790;DHT22;1910;49.042;9.028;2023-04-15T07:35:48;13.80;94.50
3790;DHT22;1910;49.042;9.028;2023-04-15T07:38:14;13.30;96.60
3790;DHT22;1910;49.042;9.028;2023-04-15T07:40:40;13.00;99.00
3790;DHT22;1910;49.042;9.028;2023-04-15T07:43:06;13.40;99.90
3790;DHT22;1910;49.042;9.028;2023-04-15T07:45:33;14.00;99.90
3790;DHT22;1910;49.042;9.028;2023-04-15T07:48:00;14.90;99.90
3790;DHT22;1910;49.042;9.028;2023-04-15T07:55:18;21.10;91.10
3790;DHT22;1910;49.042;9.028;2023-04-15T08:00:12;23.20;75.50
3790;DHT22;1910;49.042;9.028;2023-04-15T08:05:05;25.80;70.00
3790;DHT22;1910;49.042;9.028;2023-04-15T08:22:09;24.60;56.70
3790;DHT22;1910;49.042;9.028;2023-04-15T08:41:45;25.50;52.90
3790;DHT22;1910;49.042;9.028;2023-04-15T08:49:11;25.20;52.70
3790;DHT22;1910;49.042;9.028;2023-04-15T08:51:39;26.90;53.00
3790;DHT22;1910;49.042;9.028;2023-04-15T08:54:07;25.50;61.20
3790;DHT22;1910;49.042;9.028;2023-04-15T09:06:22;27.70;50.40
3790;DHT22;1910;49.042;9.028;2023-04-15T09:08:49;26.50;49.80
3790;DHT22;1910;49.042;9.028;2023-04-15T09:18:37;24.60;53.00
3790;DHT22;1910;49.042;9.028;2023-04-15T09:21:10;20.80;54.10
3790;DHT22;1910;49.042;9.028;2023-04-15T09:23:37;20.80;54.60
3790;DHT22;1910;49.042;9.028;2023-04-15T09:26:04;19.50;56.60
3790;DHT22;1910;49.042;9.028;2023-04-15T09:28:31;18.20;58.60
3790;DHT22;1910;49.042;9.028;2023-04-15T09:30:57;17.40;59.70
3790;DHT22;1910;49.042;9.028;2023-04-15T09:33:24;16.60;62.30
3790;DHT22;1910;49.042;9.028;2023-04-15T09:38:26;16.20;68.70
3790;DHT22;1910;49.042;9.028;2023-04-15T09:40:52;16.20;67.00
3790;DHT22;1910;49.042;9.028;2023-04-15T09:43:18;15.90;70.70
3790;DHT22;1910;49.042;9.028;2023-04-15T09:45:48;15.60;72.80
3790;DHT22;1910;49.042;9.028;2023-04-15T09:50:41;16.20;71.90
3790;DHT22;1910;49.042;9.028;2023-04-15T09:53:09;16.10;75.70
3790;DHT22;1910;49.042;9.028;2023-04-15T09:55:35;15.60;73.60
3790;DHT22;1910;49.042;9.028;2023-04-15T09:58:00;15.60;74.60
3790;DHT22;1910;49.042;9.028;2023-04-15T10:00:28;14.90;77.60
3790;DHT22;1910;49.042;9.028;2023-04-15T10:02:53;14.90;78.20
3790;DHT22;1910;49.042;9.028;2023-04-15T10:05:19;14.90;81.40
3790;DHT22;1910;49.042;9.028;2023-04-15T10:10:12;15.80;83.50
3790;DHT22;1910;49.042;9.028;2023-04-15T10:12:40;17.10;83.10
3790;DHT22;1910;49.042;9.028;2023-04-15T10:15:11;16.30;78.80
3790;DHT22;1910;49.042;9.028;2023-04-15T10:17:42;16.40;81.90
3790;DHT22;1910;49.042;9.028;2023-04-15T10:20:09;17.40;83.00
3790;DHT22;1910;49.042;9.028;2023-04-15T10:22:37;15.90;76.80
3790;DHT22;1910;49.042;9.028;2023-04-15T10:25:02;15.30;80.20
3790;DHT22;1910;49.042;9.028;2023-04-15T10:27:30;15.30;83.00
3790;DHT22;1910;49.042;9.028;2023-04-15T10:29:56;15.10;80.50
3790;DHT22;1910;49.042;9.028;2023-04-15T10:32:23;15.40;81.80
3790;DHT22;1910;49.042;9.028;2023-04-15T10:34:49;15.40;77.30
3790;DHT22;1910;49.042;9.028;2023-04-15T10:37:21;15.70;81.10
3790;DHT22;1910;49.042;9.028;2023-04-15T10:39:47;15.50;78.30
3790;DHT22;1910;49.042;9.028;2023-04-15T10:42:15;15.30;78.30
3790;DHT22;1910;49.042;9.028;2023-04-15T10:44:51;15.80;80.00
3790;DHT22;1910;49.042;9.028;2023-04-15T10:47:21;16.00;81.00
3790;DHT22;1910;49.042;9.028;2023-04-15T10:49:56;15.90;80.30
3790;DHT22;1910;49.042;9.028;2023-04-15T10:52:24;15.60;78.40
3790;DHT22;1910;49.042;9.028;2023-04-15T10:55:22;14.90;79.90
3790;DHT22;1910;49.042;9.028;2023-04-15T10:57:53;14.80;82.00
3790;DHT22;1910;49.042;9.028;2023-04-15T11:00:24;14.70;85.10
3790;DHT22;1910;49.042;9.028;2023-04-15T11:02:55;14.80;85.00
3790;DHT22;1910;49.042;9.028;2023-04-15T11:05:47;15.40;83.40
3790;DHT22;1910;49.042;9.028;2023-04-15T11:08:09;15.80;85.60
3790;DHT22;1910;49.042;9.028;2023-04-15T11:13:13;15.80;83.20
3790;DHT22;1910;49.042;9.028;2023-04-15T11:15:45;15.80;81.20
3790;DHT22;1910;49.042;9.028;2023-04-15T11:18:16;15.70;81.30
3790;DHT22;1910;49.042;9.028;2023-04-15T11:21:02;15.70;82.10
3790;DHT22;1910;49.042;9.028;2023-04-15T11:23:29;16.10;84.60
3790;DHT22;1910;49.042;9.028;2023-04-15T11:28:26;15.90;81.40
3790;DHT22;1910;49.042;9.028;2023-04-15T11:30:52;15.80;77.80
3790;DHT22;1910;49.042;9.028;2023-04-15T11:33:20;16.00;79.90
3790;DHT22;1910;49.042;9.028;2023-04-15T11:35:46;15.60;78.90
3790;DHT22;1910;49.042;9.028;2023-04-15T11:38:13;15.50;79.30
3790;DHT22;1910;49.042;9.028;2023-04-15T11:40:40;14.80;81.10
3790;DHT22;1910;49.042;9.028;2023-04-15T11:43:06;14.10;89.50
3790;DHT22;1910;49.042;9.028;2023-04-15T11:45:32;12.50;97.70
3790;DHT22;1910;49.042;9.028;2023-04-15T11:48:09;11.30;99.90
3790;DHT22;1910;49.042;9.028;2023-04-15T11:50:36;10.60;99.90
3790;DHT22;1910;49.042;9.028;2023-04-15T11:53:03;9.40;99.90
3790;DHT22;1910;49.042;9.028;2023-04-15T11:55:30;9.90;99.90
3790;DHT22;1910;49.042;9.028;2023-04-15T11:58:25;9.80;99.90
3790;DHT22;1910;49.042;9.028;2023-04-15T12:00:54;10.20;99.90
3790;DHT22;1910;49.042;9.028;2023-04-15T12:03:29;10.60;99.90
3790;DHT22;1910;49.042;9.028;2023-04-15T12:06:22;11.30;99.90
3790;DHT22;1910;49.042;9.028;2023-04-15T12:11:30;11.60;99.90
3790;DHT22;1910;49.042;9.028;2023-04-15T12:14:15;11.60;99.90
3790;DHT22;1910;49.042;9.028;2023-04-15T12:16:46;12.10;99.90
3790;DHT22;1910;49.042;9.028;2023-04-15T12:19:14;12.40;99.90
3790;DHT22;1910;49.042;9.028;2023-04-15T12:21:43;12.40;99.90
3790;DHT22;1910;49.042;9.028;2023-04-15T12:24:11;12.80;99.90
3790;DHT22;1910;49.042;9.028;2023-04-15T12:29:07;12.90;97.00
3790;DHT22;1910;49.042;9.028;2023-04-15T12:31:37;12.80;97.50
3790;DHT22;1910;49.042;9.028;2023-04-15T12:36:36;13.10;99.40
3790;DHT22;1910;49.042;9.028;2023-04-15T12:39:03;16.00;95.90
3790;DHT22;1910;49.042;9.028;2023-04-15T12:43:55;12.70;90.50
3790;DHT22;1910;49.042;9.028;2023-04-15T12:48:46;12.40;83.90
3790;DHT22;1910;49.042;9.028;2023-04-15T12:51:13;12.20;85.80
3790;DHT22;1910;49.042;9.028;2023-04-15T12:53:39;12.20;86.60
3790;DHT22;1910;49.042;9.028;2023-04-15T12:56:04;12.10;90.80
3790;DHT22;1910;49.042;9.028;2023-04-15T12:58:31;12.10;91.20
3790;DHT22;1910;49.042;9.028;2023-04-15T13:00:56;12.00;90.60
3790;DHT22;1910;49.042;9.028;2023-04-15T13:03:22;12.00;91.90
3790;DHT22;1910;49.042;9.028;2023-04-15T13:05:47;12.10;89.10
3790;DHT22;1910;49.042;9.028;2023-04-15T13:08:13;12.20;90.10
3790;DHT22;1910;49.042;9.028;2023-04-15T13:13:05;12.40;92.20
3790;DHT22;1910;49.042;9.028;2023-04-15T13:15:30;12.40;93.00
3790;DHT22;1910;49.042;9.028;2023-04-15T13:17:56;12.50;93.00
3790;DHT22;1910;49.042;9.028;2023-04-15T13:20:22;12.30;90.20
3790;DHT22;1910;49.042;9.028;2023-04-15T13:22:47;12.30;91.20
3790;DHT22;1910;49.042;9.028;2023-04-15T13:25:13;12.20;85.80
3790;DHT22;1910;49.042;9.028;2023-04-15T13:30:05;11.90;82.80
3790;DHT22;1910;49.042;9.028;2023-04-15T13:32:30;11.90;86.90
3790;DHT22;1910;49.042;9.028;2023-04-15T13:34:56;11.80;89.90
3790;DHT22;1910;49.042;9.028;2023-04-15T13:37:29;11.70;89.10
3790;DHT22;1910;49.042;9.028;2023-04-15T13:39:55;11.80;89.30
3790;DHT22;1910;49.042;9.028;2023-04-15T13:42:21;11.80;90.30
3790;DHT22;1910;49.042;9.028;2023-04-15T13:44:49;11.70;90.60
3790;DHT22;1910;49.042;9.028;2023-04-15T13:47:15;11.70;90.20
3790;DHT22;1910;49.042;9.028;2023-04-15T13:49:41;11.70;90.30
3790;DHT22;1910;49.042;9.028;2023-04-15T13:52:06;11.70;90.80
3790;DHT22;1910;49.042;9.028;2023-04-15T13:54:32;11.70;92.50
3790;DHT22;1910;49.042;9.028;2023-04-15T13:56:57;11.80;95.40
3790;DHT22;1910;49.042;9.028;2023-04-15T13:59:23;11.70;94.60
3790;DHT22;1910;49.042;9.028;2023-04-15T14:01:48;11.70;95.90
3790;DHT22;1910;49.042;9.028;2023-04-15T14:04:14;11.60;96.00
3790;DHT22;1910;49.042;9.028;2023-04-15T14:06:39;11.60;96.20
3790;DHT22;1910;49.042;9.028;2023-04-15T14:09:05;11.50;93.00
3790;DHT22;1910;49.042;9.028;2023-04-15T14:11:31;11.50;92.50
3790;DHT22;1910;49.042;9.028;2023-04-15T14:13:57;11.50;94.70
3790;DHT22;1910;49.042;9.028;2023-04-15T14:21:14;11.50;95.60
3790;DHT22;1910;49.042;9.028;2023-04-15T14:23:39;11.50;95.00
3790;DHT22;1910;49.042;9.028;2023-04-15T14:26:05;11.50;94.90
3790;DHT22;1910;49.042;9.028;2023-04-15T14:28:31;11.50;95.20
3790;DHT22;1910;49.042;9.028;2023-04-15T14:30:56;11.50;95.90
3790;DHT22;1910;49.042;9.028;2023-04-15T14:33:22;11.50;95.70
3790;DHT22;1910;49.042;9.028;2023-04-15T14:35:48;11.40;96.20
3790;DHT22;1910;49.042;9.028;2023-04-15T14:40:40;11.00;99.90
3790;DHT22;1910;49.042;9.028;2023-04-15T14:43:06;11.00;99.90
3790;DHT22;1910;49.042;9.028;2023-04-15T14:45:32;10.90;99.20
3790;DHT22;1910;49.042;9.028;2023-04-15T14:47:58;10.90;99.90
3790;DHT22;1910;49.042;9.028;2023-04-15T14:57:42;10.80;99.10
3790;DHT22;1910;49.042;9.028;2023-04-15T15:00:09;11.10;99.00
3790;DHT22;1910;49.042;9.028;2023-04-15T15:02:36;11.10;99.30
3790;DHT22;1910;49.042;9.028;2023-04-15T15:07:28;11.20;99.90
3790;DHT22;1910;49.042;9.028;2023-04-15T15:09:54;11.30;99.90
3790;DHT22;1910;49.042;9.028;2023-04-15T15:12:20;11.30;99.90
3790;DHT22;1910;49.042;9.028;2023-04-15T15:14:47;11.40;99.70
3790;DHT22;1910;49.042;9.028;2023-04-15T15:17:12;11.40;99.30
3790;DHT22;1910;49.042;9.028;2023-04-15T15:22:04;11.20;99.90
3790;DHT22;1910;49.042;9.028;2023-04-15T15:24:29;11.20;99.90
3790;DHT22;1910;49.042;9.028;2023-04-15T15:26:55;11.00;99.90
3790;DHT22;1910;49.042;9.028;2023-04-15T15:29:21;11.00;99.90
3790;DHT22;1910;49.042;9.028;2023-04-15T15:31:47;10.60;99.90
3790;DHT22;1910;49.042;9.028;2023-04-15T15:34:12;10.50;99.90
3790;DHT22;1910;49.042;9.028;2023-04-15T15:39:04;10.40;99.90
3790;DHT22;1910;49.042;9.028;2023-04-15T15:41:29;10.40;99.90
3790;DHT22;1910;49.042;9.028;2023-04-15T15:43:57;10.30;99.90
3790;DHT22;1910;49.042;9.028;2023-04-15T15:46:23;10.30;99.90
3790;DHT22;1910;49.042;9.028;2023-04-15T15:48:49;10.10;99.90
3790;DHT22;1910;49.042;9.028;2023-04-15T15:51:19;10.00;99.90
3790;DHT22;1910;49.042;9.028;2023-04-15T15:53:45;9.80;99.90
3790;DHT22;1910;49.042;9.028;2023-04-15T15:56:10;9.70;99.90
3790;DHT22;1910;49.042;9.028;2023-04-15T16:08:23;9.20;99.90
3790;DHT22;1910;49.042;9.028;2023-04-15T16:13:14;9.10;99.90
3790;DHT22;1910;49.042;9.028;2023-04-15T16:25:24;8.90;99.90
3790;DHT22;1910;49.042;9.028;2023-04-15T16:30:18;8.80;99.90
3790;DHT22;1910;49.042;9.028;2023-04-15T16:37:35;8.70;99.90
3790;DHT22;1910;49.042;9.028;2023-04-15T16:47:23;8.40;99.90
3790;DHT22;1910;49.042;9.028;2023-04-15T16:54:44;8.30;99.90
3790;DHT22;1910;49.042;9.028;2023-04-15T16:59:36;8.30;99.90
3790;DHT22;1910;49.042;9.028;2023-04-15T17:02:02;8.20;99.90
3790;DHT22;1910;49.042;9.028;2023-04-15T17:06:54;8.30;99.90
3790;DHT22;1910;49.042;9.028;2023-04-15T17:19:04;8.20;99.90
3790;DHT22;1910;49.042;9.028;2023-04-15T17:21:30;8.20;99.90
3790;DHT22;1910;49.042;9.028;2023-04-15T17:33:41;8.10;99.90
3790;DHT22;1910;49.042;9.028;2023-04-15T17:48:18;8.00;99.90
3790;DHT22;1910;49.042;9.028;2023-04-15T17:53:10;7.90;99.90
3790;DHT22;1910;49.042;9.028;2023-04-15T17:55:35;7.90;99.90
3790;DHT22;1910;49.042;9.028;2023-04-15T17:58:01;7.80;99.90
3790;DHT22;1910;49.042;9.028;2023-04-15T18:15:03;7.80;99.90
3790;DHT22;1910;49.042;9.028;2023-04-15T18:17:30;7.70;99.90
3790;DHT22;1910;49.042;9.028;2023-04-15T18:27:15;7.70;99.90
3790;DHT22;1910;49.042;9.028;2023-04-15T18:29:40;7.60;99.90
3790;DHT22;1910;49.042;9.028;2023-04-15T18:32:07;7.60;99.90
3790;DHT22;1910;49.042;9.028;2023-04-15T18:36:59;7.60;99.90
3790;DHT22;1910;49.042;9.028;2023-04-15T18:39:26;7.50;99.90
3790;DHT22;1910;49.042;9.028;2023-04-15T18:54:02;7.50;99.90
3790;DHT22;1910;49.042;9.028;2023-04-15T18:56:29;7.50;99.90
3790;DHT22;1910;49.042;9.028;2023-04-15T19:06:12;7.50;99.90
3790;DHT22;1910;49.042;9.028;2023-04-15T19:08:38;8.50;99.90
3790;DHT22;1910;49.042;9.028;2023-04-15T19:13:30;7.50;99.90
3790;DHT22;1910;49.042;9.028;2023-04-15T19:15:55;7.50;99.90
3790;DHT22;1910;49.042;9.028;2023-04-15T19:20:47;7.50;99.90
3790;DHT22;1910;49.042;9.028;2023-04-15T19:35:25;7.50;99.90
3790;DHT22;1910;49.042;9.028;2023-04-15T19:37:50;7.50;99.90
3790;DHT22;1910;49.042;9.028;2023-04-15T19:42:42;7.50;99.90
3790;DHT22;1910;49.042;9.028;2023-04-15T19:45:08;10.60;99.90
3790;DHT22;1910;49.042;9.028;2023-04-15T19:52:26;7.50;99.90
3790;DHT22;1910;49.042;9.028;2023-04-15T19:54:52;7.50;99.90
3790;DHT22;1910;49.042;9.028;2023-04-15T19:59:44;7.50;99.90
3790;DHT22;1910;49.042;9.028;2023-04-15T20:07:01;7.50;99.90
3790;DHT22;1910;49.042;9.028;2023-04-15T20:09:28;7.50;99.90
3790;DHT22;1910;49.042;9.028;2023-04-15T20:14:20;7.50;99.90
3790;DHT22;1910;49.042;9.028;2023-04-15T20:16:47;7.50;99.90
3790;DHT22;1910;49.042;9.028;2023-04-15T20:19:13;8.50;99.90
3790;DHT22;1910;49.042;9.028;2023-04-15T20:21:39;7.60;99.90
3790;DHT22;1910;49.042;9.028;2023-04-15T20:24:05;7.50;99.90
3790;DHT22;1910;49.042;9.028;2023-04-15T20:26:31;7.50;99.90
3790;DHT22;1910;49.042;9.028;2023-04-15T20:28:57;7.50;99.90
3790;DHT22;1910;49.042;9.028;2023-04-15T20:31:23;7.50;99.90
3790;DHT22;1910;49.042;9.028;2023-04-15T20:33:48;7.50;99.90
3790;DHT22;1910;49.042;9.028;2023-04-15T20:36:14;7.40;99.90
3790;DHT22;1910;49.042;9.028;2023-04-15T20:41:09;7.50;99.90
3790;DHT22;1910;49.042;9.028;2023-04-15T20:43:37;7.10;99.90
3790;DHT22;1910;49.042;9.028;2023-04-15T20:46:02;7.40;99.90
3790;DHT22;1910;49.042;9.028;2023-04-15T20:48:30;7.40;99.90
3790;DHT22;1910;49.042;9.028;2023-04-15T20:50:57;7.40;99.90
3790;DHT22;1910;49.042;9.028;2023-04-15T20:53:22;7.40;99.90
3790;DHT22;1910;49.042;9.028;2023-04-15T20:55:48;7.40;99.90
3790;DHT22;1910;49.042;9.028;2023-04-15T20:58:13;7.40;99.90
3790;DHT22;1910;49.042;9.028;2023-04-15T21:00:40;7.40;99.90
3790;DHT22;1910;49.042;9.028;2023-04-15T21:03:06;7.80;99.90
3790;DHT22;1910;49.042;9.028;2023-04-15T21:05:31;7.40;99.90
3790;DHT22;1910;49.042;9.028;2023-04-15T21:15:16;7.50;99.90
3790;DHT22;1910;49.042;9.028;2023-04-15T21:17:41;7.50;99.90
3790;DHT22;1910;49.042;9.028;2023-04-15T21:20:07;7.50;99.90
3790;DHT22;1910;49.042;9.028;2023-04-15T21:22:33;7.50;99.90
3790;DHT22;1910;49.042;9.028;2023-04-15T21:24:59;7.40;99.90
3790;DHT22;1910;49.042;9.028;2023-04-15T21:27:25;7.40;99.90
3790;DHT22;1910;49.042;9.028;2023-04-15T21:29:52;7.40;99.90
3790;DHT22;1910;49.042;9.028;2023-04-15T21:32:18;7.40;99.90
3790;DHT22;1910;49.042;9.028;2023-04-15T21:44:27;7.50;99.90
3790;DHT22;1910;49.042;9.028;2023-04-15T21:51:46;7.40;99.90
3790;DHT22;1910;49.042;9.028;2023-04-15T21:54:13;7.40;99.90
3790;DHT22;1910;49.042;9.028;2023-04-15T21:56:38;7.40;99.90
3790;DHT22;1910;49.042;9.028;2023-04-15T21:59:04;7.50;99.90
3790;DHT22;1910;49.042;9.028;2023-04-15T22:01:30;7.50;99.90
3790;DHT22;1910;49.042;9.028;2023-04-15T22:03:56;7.50;99.90
3790;DHT22;1910;49.042;9.028;2023-04-15T22:08:48;7.50;99.90
3790;DHT22;1910;49.042;9.028;2023-04-15T22:11:20;7.40;99.90
3790;DHT22;1910;49.042;9.028;2023-04-15T22:13:54;7.40;99.90
3790;DHT22;1910;49.042;9.028;2023-04-15T22:16:19;7.40;99.90
3790;DHT22;1910;49.042;9.028;2023-04-15T22:21:12;7.40;99.90
3790;DHT22;1910;49.042;9.028;2023-04-15T22:23:38;7.40;99.90
3790;DHT22;1910;49.042;9.028;2023-04-15T22:26:06;7.40;99.90
3790;DHT22;1910;49.042;9.028;2023-04-15T22:30:57;7.50;99.90
3790;DHT22;1910;49.042;9.028;2023-04-15T22:33:23;7.50;99.90
3790;DHT22;1910;49.042;9.028;2023-04-15T22:35:52;7.50;99.90
3790;DHT22;1910;49.042;9.028;2023-04-15T22:38:17;7.40;99.90
3790;DHT22;1910;49.042;9.028;2023-04-15T22:40:44;7.40;99.90
3790;DHT22;1910;49.042;9.028;2023-04-15T22:43:10;7.30;99.90
3790;DHT22;1910;49.042;9.028;2023-04-15T22:50:30;7.40;99.90
3790;DHT22;1910;49.042;9.028;2023-04-15T22:52:55;7.40;99.90
3790;DHT22;1910;49.042;9.028;2023-04-15T22:55:21;7.30;99.90
3790;DHT22;1910;49.042;9.028;2023-04-15T23:00:13;7.30;99.90
3790;DHT22;1910;49.042;9.028;2023-04-15T23:02:38;7.30;99.90
3790;DHT22;1910;49.042;9.028;2023-04-15T23:05:04;7.30;99.90
3790;DHT22;1910;49.042;9.028;2023-04-15T23:07:30;7.40;99.90
3790;DHT22;1910;49.042;9.028;2023-04-15T23:09:56;7.30;99.90
3790;DHT22;1910;49.042;9.028;2023-04-15T23:12:22;7.30;99.90
3790;DHT22;1910;49.042;9.028;2023-04-15T23:27:02;7.30;99.90
3790;DHT22;1910;49.042;9.028;2023-04-15T23:34:20;7.30;99.90
3790;DHT22;1910;49.042;9.028;2023-04-15T23:53:48;7.30;99.90
3790;DHT22;1910;49.042;9.028;2023-04-15T23:56:13;7.30;99.90
3790;DHT22;1910;49.042;9.028;2023-04-15T23:58:39;7.30;99.90
